sensor_id;sensor_type;location;lat;lon;timestamp;P1;durP1;ratioP1;P2;durP2;ratioP2
49223;SDS011;35050;51.316;5.994;2024-02-15T00:01:21;10.30;;;6.18;;
49223;SDS011;35050;51.316;5.994;2024-02-15T00:03:47;12.15;;;7.50;;
49223;SDS011;35050;51.316;5.994;2024-02-15T00:06:13;11.98;;;7.63;;
49223;SDS011;35050;51.316;5.994;2024-02-15T00:08:39;13.57;;;7.25;;
49223;SDS011;35050;51.316;5.994;2024-02-15T00:11:04;12.77;;;7.22;;
49223;SDS011;35050;51.316;5.994;2024-02-15T00:13:30;14.07;;;8.68;;
49223;SDS011;35050;51.316;5.994;2024-02-15T00:15:58;13.48;;;8.20;;
49223;SDS011;35050;51.316;5.994;2024-02-15T00:18:24;18.25;;;8.93;;
49223;SDS011;35050;51.316;5.994;2024-02-15T00:20:50;12.27;;;8.95;;
49223;SDS011;35050;51.316;5.994;2024-02-15T00:23:15;14.20;;;7.80;;
49223;SDS011;35050;51.316;5.994;2024-02-15T00:25:41;11.77;;;8.10;;
49223;SDS011;35050;51.316;5.994;2024-02-15T00:28:09;16.48;;;8.85;;
49223;SDS011;35050;51.316;5.994;2024-02-15T00:30:36;14.38;;;8.38;;
49223;SDS011;35050;51.316;5.994;2024-02-15T00:33:02;14.98;;;8.05;;
49223;SDS011;35050;51.316;5.994;2024-02-15T00:35:28;13.43;;;8.32;;
49223;SDS011;35050;51.316;5.994;2024-02-15T00:37:54;16.25;;;8.48;;
49223;SDS011;35050;51.316;5.994;2024-02-15T00:40:19;11.80;;;7.32;;
49223;SDS011;35050;51.316;5.994;2024-02-15T00:42:46;11.73;;;6.68;;
49223;SDS011;35050;51.316;5.994;2024-02-15T00:45:12;10.75;;;6.80;;
49223;SDS011;35050;51.316;5.994;2024-02-15T00:47:37;11.48;;;6.65;;
49223;SDS011;35050;51.316;5.994;2024-02-15T00:50:03;13.50;;;6.40;;
49223;SDS011;35050;51.316;5.994;2024-02-15T00:52:29;10.10;;;5.90;;
49223;SDS011;35050;51.316;5.994;2024-02-15T00:54:55;11.93;;;6.03;;
49223;SDS011;35050;51.316;5.994;2024-02-15T00:57:21;11.82;;;6.72;;
49223;SDS011;35050;51.316;5.994;2024-02-15T00:59:47;18.02;;;6.78;;
49223;SDS011;35050;51.316;5.994;2024-02-15T01:02:13;14.98;;;6.40;;
49223;SDS011;35050;51.316;5.994;2024-02-15T01:04:39;15.48;;;6.43;;
49223;SDS011;35050;51.316;5.994;2024-02-15T01:07:05;12.15;;;5.80;;
49223;SDS011;35050;51.316;5.994;2024-02-15T01:09:30;12.20;;;5.80;;
49223;SDS011;35050;51.316;5.994;2024-02-15T01:11:56;12.35;;;5.57;;
49223;SDS011;35050;51.316;5.994;2024-02-15T01:14:21;12.98;;;5.60;;
49223;SDS011;35050;51.316;5.994;2024-02-15T01:16:47;10.90;;;5.38;;
49223;SDS011;35050;51.316;5.994;2024-02-15T01:19:13;12.65;;;5.10;;
49223;SDS011;35050;51.316;5.994;2024-02-15T01:21:38;11.23;;;4.60;;
49223;SDS011;35050;51.316;5.994;2024-02-15T01:24:04;10.45;;;5.00;;
49223;SDS011;35050;51.316;5.994;2024-02-15T01:26:31;11.50;;;5.40;;
49223;SDS011;35050;51.316;5.994;2024-02-15T01:28:57;12.32;;;5.38;;
49223;SDS011;35050;51.316;5.994;2024-02-15T01:31:23;12.05;;;4.93;;
49223;SDS011;35050;51.316;5.994;2024-02-15T01:33:49;11.93;;;5.25;;
49223;SDS011;35050;51.316;5.994;2024-02-15T01:36:15;7.90;;;4.57;;
49223;SDS011;35050;51.316;5.994;2024-02-15T01:38:41;11.20;;;4.93;;
49223;SDS011;35050;51.316;5.994;2024-02-15T01:41:07;7.22;;;4.07;;
49223;SDS011;35050;51.316;5.994;2024-02-15T01:43:33;12.20;;;4.90;;
49223;SDS011;35050;51.316;5.994;2024-02-15T01:45:59;10.85;;;4.95;;
49223;SDS011;35050;51.316;5.994;2024-02-15T01:48:31;10.27;;;4.60;;
49223;SDS011;35050;51.316;5.994;2024-02-15T01:50:57;13.68;;;4.80;;
49223;SDS011;35050;51.316;5.994;2024-02-15T01:53:23;13.32;;;4.85;;
49223;SDS011;35050;51.316;5.994;2024-02-15T01:55:51;11.40;;;5.05;;
49223;SDS011;35050;51.316;5.994;2024-02-15T01:58:18;14.73;;;5.10;;
49223;SDS011;35050;51.316;5.994;2024-02-15T02:00:45;12.57;;;4.45;;
49223;SDS011;35050;51.316;5.994;2024-02-15T02:03:10;9.10;;;4.28;;
49223;SDS011;35050;51.316;5.994;2024-02-15T02:05:39;13.10;;;4.97;;
49223;SDS011;35050;51.316;5.994;2024-02-15T02:08:06;8.82;;;4.30;;
49223;SDS011;35050;51.316;5.994;2024-02-15T02:10:35;11.38;;;4.40;;
49223;SDS011;35050;51.316;5.994;2024-02-15T02:13:02;8.85;;;3.92;;
49223;SDS011;35050;51.316;5.994;2024-02-15T02:15:28;10.63;;;4.60;;
49223;SDS011;35050;51.316;5.994;2024-02-15T02:17:56;10.65;;;4.18;;
49223;SDS011;35050;51.316;5.994;2024-02-15T02:20:23;8.98;;;4.47;;
49223;SDS011;35050;51.316;5.994;2024-02-15T02:22:50;14.02;;;4.78;;
49223;SDS011;35050;51.316;5.994;2024-02-15T02:25:22;13.55;;;4.15;;
49223;SDS011;35050;51.316;5.994;2024-02-15T02:27:51;11.60;;;4.47;;
49223;SDS011;35050;51.316;5.994;2024-02-15T02:30:17;10.63;;;3.92;;
49223;SDS011;35050;51.316;5.994;2024-02-15T02:32:44;8.88;;;3.63;;
49223;SDS011;35050;51.316;5.994;2024-02-15T02:35:11;12.38;;;4.00;;
49223;SDS011;35050;51.316;5.994;2024-02-15T02:37:40;11.55;;;4.25;;
49223;SDS011;35050;51.316;5.994;2024-02-15T02:40:06;11.77;;;4.32;;
49223;SDS011;35050;51.316;5.994;2024-02-15T02:42:48;13.10;;;4.40;;
49223;SDS011;35050;51.316;5.994;2024-02-15T02:45:18;11.55;;;4.60;;
49223;SDS011;35050;51.316;5.994;2024-02-15T02:47:45;12.57;;;5.18;;
49223;SDS011;35050;51.316;5.994;2024-02-15T02:50:12;10.15;;;4.38;;
49223;SDS011;35050;51.316;5.994;2024-02-15T02:52:38;9.05;;;3.97;;
49223;SDS011;35050;51.316;5.994;2024-02-15T02:55:05;9.13;;;4.07;;
49223;SDS011;35050;51.316;5.994;2024-02-15T02:57:37;12.02;;;4.55;;
49223;SDS011;35050;51.316;5.994;2024-02-15T03:00:07;10.43;;;4.55;;
49223;SDS011;35050;51.316;5.994;2024-02-15T03:02:37;6.57;;;3.50;;
49223;SDS011;35050;51.316;5.994;2024-02-15T03:05:04;12.05;;;4.22;;
49223;SDS011;35050;51.316;5.994;2024-02-15T03:07:34;8.55;;;4.35;;
49223;SDS011;35050;51.316;5.994;2024-02-15T03:10:00;8.63;;;4.00;;
49223;SDS011;35050;51.316;5.994;2024-02-15T03:12:27;10.10;;;3.92;;
49223;SDS011;35050;51.316;5.994;2024-02-15T03:14:54;11.65;;;3.92;;
49223;SDS011;35050;51.316;5.994;2024-02-15T03:17:20;13.77;;;3.83;;
49223;SDS011;35050;51.316;5.994;2024-02-15T03:19:46;9.70;;;3.30;;
49223;SDS011;35050;51.316;5.994;2024-02-15T03:22:14;8.05;;;3.60;;
49223;SDS011;35050;51.316;5.994;2024-02-15T03:24:40;8.90;;;4.07;;
49223;SDS011;35050;51.316;5.994;2024-02-15T03:27:06;9.93;;;4.22;;
49223;SDS011;35050;51.316;5.994;2024-02-15T03:29:32;8.70;;;3.35;;
49223;SDS011;35050;51.316;5.994;2024-02-15T03:32:01;9.02;;;3.88;;
49223;SDS011;35050;51.316;5.994;2024-02-15T03:34:28;11.85;;;3.50;;
49223;SDS011;35050;51.316;5.994;2024-02-15T03:36:56;8.80;;;3.28;;
49223;SDS011;35050;51.316;5.994;2024-02-15T03:39:22;12.85;;;3.92;;
49223;SDS011;35050;51.316;5.994;2024-02-15T03:41:48;7.53;;;3.40;;
49223;SDS011;35050;51.316;5.994;2024-02-15T03:44:14;6.43;;;2.85;;
49223;SDS011;35050;51.316;5.994;2024-02-15T03:46:40;5.88;;;3.38;;
49223;SDS011;35050;51.316;5.994;2024-02-15T03:49:06;9.50;;;3.03;;
49223;SDS011;35050;51.316;5.994;2024-02-15T03:51:33;10.05;;;4.03;;
49223;SDS011;35050;51.316;5.994;2024-02-15T03:53:59;11.00;;;4.28;;
49223;SDS011;35050;51.316;5.994;2024-02-15T03:56:25;10.13;;;3.45;;
49223;SDS011;35050;51.316;5.994;2024-02-15T03:58:51;9.15;;;2.88;;
49223;SDS011;35050;51.316;5.994;2024-02-15T04:01:16;6.55;;;2.97;;
49223;SDS011;35050;51.316;5.994;2024-02-15T04:03:42;6.30;;;2.78;;
49223;SDS011;35050;51.316;5.994;2024-02-15T04:06:08;7.45;;;3.17;;
49223;SDS011;35050;51.316;5.994;2024-02-15T04:08:35;6.20;;;2.80;;
49223;SDS011;35050;51.316;5.994;2024-02-15T04:11:04;9.35;;;3.17;;
49223;SDS011;35050;51.316;5.994;2024-02-15T04:13:32;6.18;;;2.58;;
49223;SDS011;35050;51.316;5.994;2024-02-15T04:15:58;6.43;;;3.00;;
49223;SDS011;35050;51.316;5.994;2024-02-15T04:18:24;5.72;;;2.25;;
49223;SDS011;35050;51.316;5.994;2024-02-15T04:20:49;7.90;;;2.60;;
49223;SDS011;35050;51.316;5.994;2024-02-15T04:23:16;8.30;;;2.90;;
49223;SDS011;35050;51.316;5.994;2024-02-15T04:25:42;3.70;;;2.03;;
49223;SDS011;35050;51.316;5.994;2024-02-15T04:28:11;10.32;;;2.97;;
49223;SDS011;35050;51.316;5.994;2024-02-15T04:30:37;8.10;;;2.50;;
49223;SDS011;35050;51.316;5.994;2024-02-15T04:33:03;6.00;;;1.92;;
49223;SDS011;35050;51.316;5.994;2024-02-15T04:35:30;7.40;;;2.53;;
49223;SDS011;35050;51.316;5.994;2024-02-15T04:37:56;8.20;;;2.70;;
49223;SDS011;35050;51.316;5.994;2024-02-15T04:40:22;9.25;;;2.70;;
49223;SDS011;35050;51.316;5.994;2024-02-15T04:42:48;6.50;;;2.70;;
49223;SDS011;35050;51.316;5.994;2024-02-15T04:45:14;7.50;;;2.63;;
49223;SDS011;35050;51.316;5.994;2024-02-15T04:47:40;6.47;;;2.38;;
49223;SDS011;35050;51.316;5.994;2024-02-15T04:50:06;4.80;;;2.25;;
49223;SDS011;35050;51.316;5.994;2024-02-15T04:52:34;6.15;;;2.47;;
49223;SDS011;35050;51.316;5.994;2024-02-15T04:55:00;8.82;;;3.05;;
49223;SDS011;35050;51.316;5.994;2024-02-15T04:57:26;8.27;;;2.40;;
49223;SDS011;35050;51.316;5.994;2024-02-15T04:59:55;5.68;;;2.13;;
49223;SDS011;35050;51.316;5.994;2024-02-15T05:02:21;7.55;;;2.30;;
49223;SDS011;35050;51.316;5.994;2024-02-15T05:04:49;6.93;;;2.40;;
49223;SDS011;35050;51.316;5.994;2024-02-15T05:07:21;6.70;;;2.20;;
49223;SDS011;35050;51.316;5.994;2024-02-15T05:09:50;4.60;;;2.08;;
49223;SDS011;35050;51.316;5.994;2024-02-15T05:12:23;6.88;;;2.13;;
49223;SDS011;35050;51.316;5.994;2024-02-15T05:14:49;8.50;;;2.55;;
49223;SDS011;35050;51.316;5.994;2024-02-15T05:17:16;5.53;;;2.40;;
49223;SDS011;35050;51.316;5.994;2024-02-15T05:19:41;7.50;;;2.95;;
49223;SDS011;35050;51.316;5.994;2024-02-15T05:22:07;4.68;;;2.08;;
49223;SDS011;35050;51.316;5.994;2024-02-15T05:24:33;8.55;;;2.20;;
49223;SDS011;35050;51.316;5.994;2024-02-15T05:26:59;6.32;;;2.58;;
49223;SDS011;35050;51.316;5.994;2024-02-15T05:29:26;7.25;;;2.45;;
49223;SDS011;35050;51.316;5.994;2024-02-15T05:31:53;6.95;;;2.30;;
49223;SDS011;35050;51.316;5.994;2024-02-15T05:34:19;8.07;;;2.65;;
49223;SDS011;35050;51.316;5.994;2024-02-15T05:36:45;7.80;;;2.42;;
49223;SDS011;35050;51.316;5.994;2024-02-15T05:39:13;7.00;;;2.67;;
49223;SDS011;35050;51.316;5.994;2024-02-15T05:41:39;6.30;;;2.20;;
49223;SDS011;35050;51.316;5.994;2024-02-15T05:44:05;7.93;;;2.40;;
49223;SDS011;35050;51.316;5.994;2024-02-15T05:46:34;6.55;;;2.30;;
49223;SDS011;35050;51.316;5.994;2024-02-15T05:49:04;5.78;;;2.10;;
49223;SDS011;35050;51.316;5.994;2024-02-15T05:51:30;6.85;;;2.95;;
49223;SDS011;35050;51.316;5.994;2024-02-15T05:53:58;8.38;;;2.40;;
49223;SDS011;35050;51.316;5.994;2024-02-15T05:56:24;8.02;;;2.35;;
49223;SDS011;35050;51.316;5.994;2024-02-15T05:58:51;6.93;;;2.30;;
49223;SDS011;35050;51.316;5.994;2024-02-15T06:01:17;4.80;;;1.85;;
49223;SDS011;35050;51.316;5.994;2024-02-15T06:03:43;6.10;;;2.05;;
49223;SDS011;35050;51.316;5.994;2024-02-15T06:06:10;7.78;;;2.38;;
49223;SDS011;35050;51.316;5.994;2024-02-15T06:08:36;3.90;;;1.95;;
49223;SDS011;35050;51.316;5.994;2024-02-15T06:11:03;5.20;;;2.80;;
49223;SDS011;35050;51.316;5.994;2024-02-15T06:13:30;4.07;;;2.17;;
49223;SDS011;35050;51.316;5.994;2024-02-15T06:15:56;6.07;;;2.30;;
49223;SDS011;35050;51.316;5.994;2024-02-15T06:18:26;9.27;;;2.30;;
49223;SDS011;35050;51.316;5.994;2024-02-15T06:20:54;10.15;;;2.30;;
49223;SDS011;35050;51.316;5.994;2024-02-15T06:23:27;11.20;;;2.40;;
49223;SDS011;35050;51.316;5.994;2024-02-15T06:25:54;9.43;;;3.05;;
49223;SDS011;35050;51.316;5.994;2024-02-15T06:28:24;6.28;;;2.33;;
49223;SDS011;35050;51.316;5.994;2024-02-15T06:31:08;5.50;;;2.20;;
49223;SDS011;35050;51.316;5.994;2024-02-15T06:33:54;6.30;;;2.13;;
49223;SDS011;35050;51.316;5.994;2024-02-15T06:36:40;7.28;;;2.53;;
49223;SDS011;35050;51.316;5.994;2024-02-15T06:39:34;10.70;;;2.55;;
49223;SDS011;35050;51.316;5.994;2024-02-15T06:42:03;6.22;;;2.47;;
49223;SDS011;35050;51.316;5.994;2024-02-15T06:44:29;10.30;;;2.38;;
49223;SDS011;35050;51.316;5.994;2024-02-15T06:46:55;5.35;;;2.30;;
49223;SDS011;35050;51.316;5.994;2024-02-15T06:49:21;8.63;;;2.50;;
49223;SDS011;35050;51.316;5.994;2024-02-15T06:51:50;5.53;;;2.15;;
49223;SDS011;35050;51.316;5.994;2024-02-15T06:54:16;7.47;;;2.25;;
49223;SDS011;35050;51.316;5.994;2024-02-15T06:56:43;4.80;;;2.40;;
49223;SDS011;35050;51.316;5.994;2024-02-15T06:59:11;8.15;;;2.53;;
49223;SDS011;35050;51.316;5.994;2024-02-15T07:01:40;8.68;;;2.88;;
49223;SDS011;35050;51.316;5.994;2024-02-15T07:04:07;8.10;;;2.80;;
49223;SDS011;35050;51.316;5.994;2024-02-15T07:06:35;8.77;;;2.70;;
49223;SDS011;35050;51.316;5.994;2024-02-15T07:09:06;8.07;;;2.65;;
49223;SDS011;35050;51.316;5.994;2024-02-15T07:11:32;5.80;;;2.47;;
49223;SDS011;35050;51.316;5.994;2024-02-15T07:14:01;7.72;;;2.60;;
49223;SDS011;35050;51.316;5.994;2024-02-15T07:16:29;6.80;;;2.35;;
49223;SDS011;35050;51.316;5.994;2024-02-15T07:18:55;7.38;;;3.08;;
49223;SDS011;35050;51.316;5.994;2024-02-15T07:21:21;8.13;;;2.45;;
49223;SDS011;35050;51.316;5.994;2024-02-15T07:23:54;8.15;;;2.38;;
49223;SDS011;35050;51.316;5.994;2024-02-15T07:26:23;8.75;;;2.60;;
49223;SDS011;35050;51.316;5.994;2024-02-15T07:28:53;6.88;;;2.10;;
49223;SDS011;35050;51.316;5.994;2024-02-15T07:31:19;6.40;;;2.28;;
49223;SDS011;35050;51.316;5.994;2024-02-15T07:33:51;5.90;;;2.60;;
49223;SDS011;35050;51.316;5.994;2024-02-15T07:36:18;6.65;;;2.30;;
49223;SDS011;35050;51.316;5.994;2024-02-15T07:38:47;4.82;;;2.00;;
49223;SDS011;35050;51.316;5.994;2024-02-15T07:41:14;6.60;;;2.25;;
49223;SDS011;35050;51.316;5.994;2024-02-15T07:43:40;4.43;;;2.20;;
49223;SDS011;35050;51.316;5.994;2024-02-15T07:46:06;4.90;;;1.90;;
49223;SDS011;35050;51.316;5.994;2024-02-15T07:48:32;7.13;;;2.17;;
49223;SDS011;35050;51.316;5.994;2024-02-15T07:50:57;9.63;;;3.83;;
49223;SDS011;35050;51.316;5.994;2024-02-15T07:53:23;4.38;;;2.85;;
49223;SDS011;35050;51.316;5.994;2024-02-15T07:55:50;6.85;;;2.58;;
49223;SDS011;35050;51.316;5.994;2024-02-15T07:58:15;5.45;;;2.10;;
49223;SDS011;35050;51.316;5.994;2024-02-15T08:00:43;6.30;;;2.38;;
49223;SDS011;35050;51.316;5.994;2024-02-15T08:03:09;6.63;;;2.08;;
49223;SDS011;35050;51.316;5.994;2024-02-15T08:05:35;3.42;;;2.17;;
49223;SDS011;35050;51.316;5.994;2024-02-15T08:08:02;3.90;;;2.20;;
49223;SDS011;35050;51.316;5.994;2024-02-15T08:10:29;7.07;;;2.53;;
49223;SDS011;35050;51.316;5.994;2024-02-15T08:12:55;4.18;;;1.90;;
49223;SDS011;35050;51.316;5.994;2024-02-15T08:15:23;5.80;;;2.15;;
49223;SDS011;35050;51.316;5.994;2024-02-15T08:17:49;8.00;;;2.78;;
49223;SDS011;35050;51.316;5.994;2024-02-15T08:20:15;6.00;;;2.17;;
49223;SDS011;35050;51.316;5.994;2024-02-15T08:22:46;4.85;;;1.83;;
49223;SDS011;35050;51.316;5.994;2024-02-15T08:25:12;6.90;;;2.33;;
49223;SDS011;35050;51.316;5.994;2024-02-15T08:27:41;4.75;;;2.05;;
49223;SDS011;35050;51.316;5.994;2024-02-15T08:30:09;6.38;;;2.20;;
49223;SDS011;35050;51.316;5.994;2024-02-15T08:32:39;6.13;;;1.90;;
49223;SDS011;35050;51.316;5.994;2024-02-15T08:35:07;6.75;;;2.53;;
49223;SDS011;35050;51.316;5.994;2024-02-15T08:37:41;7.95;;;2.05;;
49223;SDS011;35050;51.316;5.994;2024-02-15T08:40:08;4.40;;;1.92;;
49223;SDS011;35050;51.316;5.994;2024-02-15T08:42:41;5.93;;;2.05;;
49223;SDS011;35050;51.316;5.994;2024-02-15T08:45:08;7.40;;;2.30;;
49223;SDS011;35050;51.316;5.994;2024-02-15T08:47:38;5.97;;;2.25;;
49223;SDS011;35050;51.316;5.994;2024-02-15T08:50:07;3.53;;;1.98;;
49223;SDS011;35050;51.316;5.994;2024-02-15T08:52:37;7.25;;;2.05;;
49223;SDS011;35050;51.316;5.994;2024-02-15T08:55:07;4.75;;;1.75;;
49223;SDS011;35050;51.316;5.994;2024-02-15T08:57:34;7.03;;;2.40;;
49223;SDS011;35050;51.316;5.994;2024-02-15T09:00:04;5.07;;;2.60;;
49223;SDS011;35050;51.316;5.994;2024-02-15T09:02:34;6.05;;;2.20;;
49223;SDS011;35050;51.316;5.994;2024-02-15T09:05:00;4.40;;;2.03;;
49223;SDS011;35050;51.316;5.994;2024-02-15T09:07:26;5.32;;;2.38;;
49223;SDS011;35050;51.316;5.994;2024-02-15T09:09:51;7.72;;;2.13;;
49223;SDS011;35050;51.316;5.994;2024-02-15T09:12:17;6.43;;;2.20;;
49223;SDS011;35050;51.316;5.994;2024-02-15T09:14:42;4.53;;;1.83;;
49223;SDS011;35050;51.316;5.994;2024-02-15T09:17:08;7.35;;;2.03;;
49223;SDS011;35050;51.316;5.994;2024-02-15T09:19:34;3.90;;;1.80;;
49223;SDS011;35050;51.316;5.994;2024-02-15T09:22:01;7.72;;;2.33;;
49223;SDS011;35050;51.316;5.994;2024-02-15T09:24:29;7.45;;;2.30;;
49223;SDS011;35050;51.316;5.994;2024-02-15T09:26:55;4.50;;;1.80;;
49223;SDS011;35050;51.316;5.994;2024-02-15T09:29:21;6.68;;;2.90;;
49223;SDS011;35050;51.316;5.994;2024-02-15T09:31:47;8.52;;;2.50;;
49223;SDS011;35050;51.316;5.994;2024-02-15T09:34:13;6.80;;;2.08;;
49223;SDS011;35050;51.316;5.994;2024-02-15T09:36:39;5.00;;;2.05;;
49223;SDS011;35050;51.316;5.994;2024-02-15T09:39:04;5.75;;;2.08;;
49223;SDS011;35050;51.316;5.994;2024-02-15T09:41:31;4.97;;;2.20;;
49223;SDS011;35050;51.316;5.994;2024-02-15T09:43:57;4.57;;;1.80;;
49223;SDS011;35050;51.316;5.994;2024-02-15T09:46:23;4.85;;;1.80;;
49223;SDS011;35050;51.316;5.994;2024-02-15T09:48:52;2.70;;;1.70;;
49223;SDS011;35050;51.316;5.994;2024-02-15T09:51:25;5.40;;;1.95;;
49223;SDS011;35050;51.316;5.994;2024-02-15T09:53:54;4.75;;;1.70;;
49223;SDS011;35050;51.316;5.994;2024-02-15T09:56:22;5.57;;;1.85;;
49223;SDS011;35050;51.316;5.994;2024-02-15T09:58:50;7.80;;;1.88;;
49223;SDS011;35050;51.316;5.994;2024-02-15T10:01:16;3.17;;;1.38;;
49223;SDS011;35050;51.316;5.994;2024-02-15T10:03:44;8.43;;;2.08;;
49223;SDS011;35050;51.316;5.994;2024-02-15T10:06:14;4.55;;;1.35;;
49223;SDS011;35050;51.316;5.994;2024-02-15T10:08:40;6.15;;;1.50;;
49223;SDS011;35050;51.316;5.994;2024-02-15T10:11:09;4.63;;;1.77;;
49223;SDS011;35050;51.316;5.994;2024-02-15T10:13:35;3.78;;;1.38;;
49223;SDS011;35050;51.316;5.994;2024-02-15T10:16:13;4.25;;;1.63;;
49223;SDS011;35050;51.316;5.994;2024-02-15T10:18:50;4.15;;;1.50;;
49223;SDS011;35050;51.316;5.994;2024-02-15T10:21:25;4.85;;;1.63;;
49223;SDS011;35050;51.316;5.994;2024-02-15T10:24:27;5.60;;;1.65;;
49223;SDS011;35050;51.316;5.994;2024-02-15T10:29:13;6.32;;;1.60;;
49223;SDS011;35050;51.316;5.994;2024-02-15T10:31:51;4.30;;;1.70;;
49223;SDS011;35050;51.316;5.994;2024-02-15T10:34:21;4.53;;;1.17;;
49223;SDS011;35050;51.316;5.994;2024-02-15T10:36:47;4.25;;;1.30;;
49223;SDS011;35050;51.316;5.994;2024-02-15T10:39:14;3.22;;;1.17;;
49223;SDS011;35050;51.316;5.994;2024-02-15T10:41:45;3.15;;;1.23;;
49223;SDS011;35050;51.316;5.994;2024-02-15T10:44:15;1.85;;;1.00;;
49223;SDS011;35050;51.316;5.994;2024-02-15T10:46:46;7.28;;;1.40;;
49223;SDS011;35050;51.316;5.994;2024-02-15T10:49:20;4.78;;;1.83;;
49223;SDS011;35050;51.316;5.994;2024-02-15T10:51:50;3.63;;;1.02;;
49223;SDS011;35050;51.316;5.994;2024-02-15T10:57:09;2.70;;;1.30;;
49223;SDS011;35050;51.316;5.994;2024-02-15T10:59:37;4.57;;;1.50;;
49223;SDS011;35050;51.316;5.994;2024-02-15T11:04:53;4.43;;;1.23;;
49223;SDS011;35050;51.316;5.994;2024-02-15T11:07:25;3.78;;;1.50;;
49223;SDS011;35050;51.316;5.994;2024-02-15T11:09:54;8.25;;;2.10;;
49223;SDS011;35050;51.316;5.994;2024-02-15T11:12:21;5.95;;;1.63;;
49223;SDS011;35050;51.316;5.994;2024-02-15T11:14:48;3.17;;;1.38;;
49223;SDS011;35050;51.316;5.994;2024-02-15T11:22:56;3.05;;;1.05;;
49223;SDS011;35050;51.316;5.994;2024-02-15T11:25:31;4.25;;;1.27;;
49223;SDS011;35050;51.316;5.994;2024-02-15T11:28:32;3.10;;;1.25;;
49223;SDS011;35050;51.316;5.994;2024-02-15T11:30:54;4.05;;;1.33;;
49223;SDS011;35050;51.316;5.994;2024-02-15T11:36:06;4.68;;;1.10;;
49223;SDS011;35050;51.316;5.994;2024-02-15T11:38:33;3.25;;;1.02;;
49223;SDS011;35050;51.316;5.994;2024-02-15T11:46:26;2.70;;;0.90;;
49223;SDS011;35050;51.316;5.994;2024-02-15T11:48:56;3.42;;;0.90;;
49223;SDS011;35050;51.316;5.994;2024-02-15T11:51:24;7.05;;;1.50;;
49223;SDS011;35050;51.316;5.994;2024-02-15T11:53:59;2.13;;;1.00;;
49223;SDS011;35050;51.316;5.994;2024-02-15T11:56:54;2.42;;;0.93;;
49223;SDS011;35050;51.316;5.994;2024-02-15T11:59:29;3.78;;;1.20;;
49223;SDS011;35050;51.316;5.994;2024-02-15T12:02:07;2.13;;;1.00;;
49223;SDS011;35050;51.316;5.994;2024-02-15T12:04:52;2.97;;;0.93;;
49223;SDS011;35050;51.316;5.994;2024-02-15T12:07:36;2.22;;;0.90;;
49223;SDS011;35050;51.316;5.994;2024-02-15T12:10:20;2.00;;;0.80;;
49223;SDS011;35050;51.316;5.994;2024-02-15T12:13:04;3.15;;;1.10;;
49223;SDS011;35050;51.316;5.994;2024-02-15T12:16:22;5.70;;;1.05;;
49223;SDS011;35050;51.316;5.994;2024-02-15T12:18:59;3.55;;;1.33;;
49223;SDS011;35050;51.316;5.994;2024-02-15T12:21:25;2.75;;;1.05;;
49223;SDS011;35050;51.316;5.994;2024-02-15T12:23:53;1.70;;;0.73;;
49223;SDS011;35050;51.316;5.994;2024-02-15T12:26:21;4.38;;;1.48;;
49223;SDS011;35050;51.316;5.994;2024-02-15T12:28:52;2.80;;;1.23;;
49223;SDS011;35050;51.316;5.994;2024-02-15T12:31:23;3.05;;;1.08;;
49223;SDS011;35050;51.316;5.994;2024-02-15T12:34:03;2.85;;;0.93;;
49223;SDS011;35050;51.316;5.994;2024-02-15T12:36:33;1.48;;;1.00;;
49223;SDS011;35050;51.316;5.994;2024-02-15T12:39:05;2.60;;;0.70;;
49223;SDS011;35050;51.316;5.994;2024-02-15T12:41:41;3.97;;;1.25;;
49223;SDS011;35050;51.316;5.994;2024-02-15T12:44:17;1.98;;;1.23;;
49223;SDS011;35050;51.316;5.994;2024-02-15T12:46:53;3.03;;;1.00;;
49223;SDS011;35050;51.316;5.994;2024-02-15T12:51:52;2.65;;;1.10;;
49223;SDS011;35050;51.316;5.994;2024-02-15T12:54:20;1.67;;;0.80;;
49223;SDS011;35050;51.316;5.994;2024-02-15T12:56:47;3.03;;;1.05;;
49223;SDS011;35050;51.316;5.994;2024-02-15T12:59:14;2.40;;;1.13;;
49223;SDS011;35050;51.316;5.994;2024-02-15T13:01:41;3.50;;;0.77;;
49223;SDS011;35050;51.316;5.994;2024-02-15T13:04:07;3.60;;;1.00;;
49223;SDS011;35050;51.316;5.994;2024-02-15T13:06:33;2.70;;;0.85;;
49223;SDS011;35050;51.316;5.994;2024-02-15T13:09:01;4.57;;;0.93;;
49223;SDS011;35050;51.316;5.994;2024-02-15T13:11:30;4.65;;;1.35;;
49223;SDS011;35050;51.316;5.994;2024-02-15T13:13:57;2.58;;;0.82;;
49223;SDS011;35050;51.316;5.994;2024-02-15T13:16:22;1.70;;;0.75;;
49223;SDS011;35050;51.316;5.994;2024-02-15T13:18:48;1.77;;;0.90;;
49223;SDS011;35050;51.316;5.994;2024-02-15T13:21:14;2.53;;;0.80;;
49223;SDS011;35050;51.316;5.994;2024-02-15T13:23:39;2.47;;;1.08;;
49223;SDS011;35050;51.316;5.994;2024-02-15T13:26:05;2.45;;;0.85;;
49223;SDS011;35050;51.316;5.994;2024-02-15T13:28:33;2.67;;;1.08;;
49223;SDS011;35050;51.316;5.994;2024-02-15T13:30:58;1.63;;;0.90;;
49223;SDS011;35050;51.316;5.994;2024-02-15T13:33:24;2.72;;;0.80;;
49223;SDS011;35050;51.316;5.994;2024-02-15T13:35:51;2.33;;;0.77;;
49223;SDS011;35050;51.316;5.994;2024-02-15T13:38:17;12.68;;;1.27;;
49223;SDS011;35050;51.316;5.994;2024-02-15T13:40:47;2.58;;;0.95;;
49223;SDS011;35050;51.316;5.994;2024-02-15T13:43:16;3.50;;;1.13;;
49223;SDS011;35050;51.316;5.994;2024-02-15T13:45:43;1.30;;;0.68;;
49223;SDS011;35050;51.316;5.994;2024-02-15T13:48:09;3.83;;;1.00;;
49223;SDS011;35050;51.316;5.994;2024-02-15T13:50:38;3.58;;;0.80;;
49223;SDS011;35050;51.316;5.994;2024-02-15T13:53:04;2.85;;;0.98;;
49223;SDS011;35050;51.316;5.994;2024-02-15T13:55:30;1.17;;;0.70;;
49223;SDS011;35050;51.316;5.994;2024-02-15T13:57:56;1.92;;;0.93;;
49223;SDS011;35050;51.316;5.994;2024-02-15T14:00:23;2.03;;;0.98;;
49223;SDS011;35050;51.316;5.994;2024-02-15T14:02:57;2.70;;;0.82;;
49223;SDS011;35050;51.316;5.994;2024-02-15T14:05:24;2.33;;;0.70;;
49223;SDS011;35050;51.316;5.994;2024-02-15T14:08:00;1.15;;;0.90;;
49223;SDS011;35050;51.316;5.994;2024-02-15T14:10:28;1.75;;;0.77;;
49223;SDS011;35050;51.316;5.994;2024-02-15T14:12:54;1.67;;;0.88;;
49223;SDS011;35050;51.316;5.994;2024-02-15T14:15:20;1.42;;;0.60;;
49223;SDS011;35050;51.316;5.994;2024-02-15T14:17:46;2.55;;;1.05;;
49223;SDS011;35050;51.316;5.994;2024-02-15T14:20:13;2.50;;;0.80;;
49223;SDS011;35050;51.316;5.994;2024-02-15T14:22:45;2.83;;;0.80;;
49223;SDS011;35050;51.316;5.994;2024-02-15T14:25:18;1.55;;;0.88;;
49223;SDS011;35050;51.316;5.994;2024-02-15T14:27:44;2.20;;;0.95;;
49223;SDS011;35050;51.316;5.994;2024-02-15T14:30:12;2.40;;;0.90;;
49223;SDS011;35050;51.316;5.994;2024-02-15T14:32:57;2.40;;;0.90;;
49223;SDS011;35050;51.316;5.994;2024-02-15T14:35:33;3.30;;;1.00;;
49223;SDS011;35050;51.316;5.994;2024-02-15T14:40:33;2.10;;;0.90;;
49223;SDS011;35050;51.316;5.994;2024-02-15T14:43:00;2.35;;;0.80;;
49223;SDS011;35050;51.316;5.994;2024-02-15T14:45:26;1.77;;;0.80;;
49223;SDS011;35050;51.316;5.994;2024-02-15T14:47:53;2.75;;;1.15;;
49223;SDS011;35050;51.316;5.994;2024-02-15T14:50:18;3.88;;;1.13;;
49223;SDS011;35050;51.316;5.994;2024-02-15T14:52:45;1.52;;;0.90;;
49223;SDS011;35050;51.316;5.994;2024-02-15T14:55:13;1.58;;;0.80;;
49223;SDS011;35050;51.316;5.994;2024-02-15T14:57:38;3.33;;;1.20;;
49223;SDS011;35050;51.316;5.994;2024-02-15T15:00:04;2.40;;;1.00;;
49223;SDS011;35050;51.316;5.994;2024-02-15T15:05:03;3.22;;;1.02;;
49223;SDS011;35050;51.316;5.994;2024-02-15T15:07:47;4.40;;;1.00;;
49223;SDS011;35050;51.316;5.994;2024-02-15T15:10:31;2.40;;;1.13;;
49223;SDS011;35050;51.316;5.994;2024-02-15T15:13:15;2.00;;;1.10;;
49223;SDS011;35050;51.316;5.994;2024-02-15T15:15:42;3.97;;;1.45;;
49223;SDS011;35050;51.316;5.994;2024-02-15T15:18:08;2.58;;;1.38;;
49223;SDS011;35050;51.316;5.994;2024-02-15T15:20:34;1.60;;;1.08;;
49223;SDS011;35050;51.316;5.994;2024-02-15T15:23:01;4.93;;;1.42;;